createdAt,value
2018-12-20T08:43:58.453Z,994.85
2018-12-20T08:44:57.976Z,994.86
2018-12-20T08:45:57.898Z,994.87
2018-12-20T08:46:57.840Z,994.78
2018-12-20T08:47:57.796Z,994.79
2018-12-20T08:48:57.766Z,994.80
2018-12-20T08:49:57.771Z,994.85
2018-12-20T08:50:57.725Z,994.89
2018-12-20T08:51:57.806Z,994.89
2018-12-20T08:52:57.633Z,994.86
2018-12-20T08:56:46.530Z,995.04
2018-12-20T08:57:46.834Z,995.02
2018-12-20T08:58:46.169Z,995.05
2018-12-20T08:59:46.105Z,995.04
2018-12-20T09:00:46.063Z,995.00
2018-12-20T09:01:45.964Z,995.00
2018-12-20T09:02:45.891Z,994.99
2018-12-20T09:03:45.861Z,994.99
2018-12-20T09:04:45.885Z,995.05
2018-12-20T09:05:45.704Z,995.03
2018-12-20T09:06:45.649Z,995.08
2018-12-20T09:07:45.589Z,995.05
2018-12-20T09:08:45.518Z,995.07
2018-12-20T09:09:45.520Z,995.09
2018-12-20T09:10:45.399Z,995.13
2018-12-20T09:11:45.320Z,995.16
2018-12-20T09:12:45.272Z,995.15
2018-12-20T09:13:45.193Z,995.13
2018-12-20T09:14:45.150Z,995.13
2018-12-20T09:15:45.129Z,995.13
2018-12-20T09:16:44.990Z,995.16
2018-12-20T09:17:44.930Z,995.13
2018-12-20T09:18:44.870Z,995.13
2018-12-20T09:19:46.418Z,995.15
2018-12-20T09:20:44.723Z,995.19
2018-12-20T09:21:44.697Z,995.21
2018-12-20T09:22:44.588Z,995.21
2018-12-20T09:23:44.824Z,995.20
2018-12-20T09:24:44.619Z,995.20
2018-12-20T09:25:44.395Z,995.20
2018-12-20T09:26:44.354Z,995.25
2018-12-20T09:27:44.321Z,995.24
2018-12-20T09:28:44.974Z,995.34
2018-12-20T09:29:44.171Z,995.28
2018-12-20T09:30:47.098Z,995.32
2018-12-20T09:31:43.989Z,995.29
2018-12-20T09:32:43.916Z,995.27
2018-12-20T09:33:43.842Z,995.31
2018-12-20T09:34:47.023Z,995.27
2018-12-20T09:35:43.760Z,995.31
2018-12-20T09:36:43.636Z,995.30
2018-12-20T09:37:43.573Z,995.29
2018-12-20T09:38:43.629Z,995.26
2018-12-20T09:39:43.468Z,995.24
2018-12-20T09:40:43.538Z,995.23
2018-12-20T09:41:43.316Z,995.22
2018-12-20T09:42:43.254Z,995.20
2018-12-20T09:43:43.280Z,995.23
2018-12-20T09:44:43.148Z,995.27
2018-12-20T09:45:43.079Z,995.26
2018-12-20T09:46:43.106Z,995.25
2018-12-20T09:47:42.972Z,995.28
2018-12-20T09:48:42.937Z,995.31
2018-12-20T09:49:44.679Z,995.30
2018-12-20T09:50:42.734Z,995.31
2018-12-20T09:51:42.688Z,995.30
2018-12-20T09:52:44.546Z,995.29
2018-12-20T09:53:44.497Z,995.28
2018-12-20T09:54:42.449Z,995.29
2018-12-20T09:55:42.545Z,995.32
2018-12-20T09:56:42.613Z,995.34
2018-12-20T09:57:42.627Z,995.31
2018-12-20T09:58:42.154Z,995.36
2018-12-20T09:59:42.483Z,995.30
2018-12-20T10:00:42.021Z,995.34
2018-12-20T10:01:41.962Z,995.34
2018-12-20T10:02:42.040Z,995.28
2018-12-20T10:03:41.850Z,995.28
2018-12-20T10:04:41.762Z,995.26
2018-12-20T10:05:41.649Z,995.26
2018-12-20T10:06:41.604Z,995.26
2018-12-20T10:07:41.589Z,995.28
2018-12-20T10:08:41.520Z,995.23
2018-12-20T10:09:41.374Z,995.27
2018-12-20T10:10:41.335Z,995.22
2018-12-20T10:11:41.236Z,995.23
2018-12-20T10:12:41.166Z,995.20
2018-12-20T10:13:41.071Z,995.16
2018-12-20T10:14:44.216Z,995.22
2018-12-20T10:15:40.946Z,995.22
2018-12-20T10:16:40.943Z,995.16
2018-12-20T10:17:40.776Z,995.22
2018-12-20T10:18:40.710Z,995.20
2018-12-20T10:19:40.782Z,995.17
2018-12-20T10:20:42.114Z,995.19
2018-12-20T10:21:41.470Z,995.17
2018-12-20T10:22:54.963Z,995.15
2018-12-20T10:23:40.344Z,995.12
2018-12-20T10:24:40.266Z,995.10
2018-12-20T10:25:40.247Z,995.10
2018-12-20T10:26:40.118Z,995.07
2018-12-20T10:27:40.083Z,995.14
2018-12-20T10:28:39.970Z,995.11
2018-12-20T10:29:40.574Z,995.07
2018-12-20T10:30:39.857Z,995.05
2018-12-20T10:31:39.769Z,995.02
2018-12-20T10:32:27.620Z,995.06
2018-12-20T10:33:25.787Z,995.04
2018-12-20T10:34:25.657Z,995.09
2018-12-20T10:35:25.743Z,995.06
2018-12-20T10:36:25.609Z,995.06
2018-12-20T10:37:25.616Z,995.09
2018-12-20T10:38:25.588Z,995.05
2018-12-20T10:39:25.574Z,995.06
2018-12-20T10:40:25.586Z,995.05
2018-12-20T10:41:25.565Z,995.04
2018-12-20T10:42:25.533Z,995.06
2018-12-20T10:43:25.538Z,994.98
2018-12-20T10:44:25.539Z,995.01
2018-12-20T10:45:25.527Z,995.05
2018-12-20T10:46:25.501Z,995.04
2018-12-20T10:47:29.173Z,995.04
2018-12-20T10:48:25.465Z,995.01
2018-12-20T10:49:25.465Z,994.98
2018-12-20T10:50:25.495Z,994.93
2018-12-20T10:51:25.534Z,994.97
2018-12-20T10:52:25.429Z,994.98
2018-12-20T10:53:25.421Z,994.99
2018-12-20T10:54:25.401Z,994.97
2018-12-20T10:55:25.419Z,994.94
2018-12-20T10:56:25.386Z,995.02
2018-12-20T10:57:25.369Z,994.98
2018-12-20T10:58:25.367Z,994.96
2018-12-20T10:59:25.346Z,994.94
2018-12-20T11:00:25.390Z,994.85
2018-12-20T11:01:25.327Z,994.94
2018-12-20T11:02:25.310Z,994.93
2018-12-20T11:03:25.298Z,994.87
2018-12-20T11:04:25.293Z,994.88
2018-12-20T11:05:25.306Z,994.83
2018-12-20T11:06:25.264Z,994.86
2018-12-20T11:07:25.258Z,994.82
2018-12-20T11:08:25.304Z,994.80
2018-12-20T11:09:25.272Z,994.85
2018-12-20T11:10:25.215Z,994.83
2018-12-20T11:11:25.235Z,994.87
2018-12-20T11:12:25.232Z,994.82
2018-12-20T11:13:25.191Z,994.90
2018-12-20T11:14:25.175Z,994.83
2018-12-20T11:15:25.204Z,994.84
2018-12-20T11:16:25.175Z,994.80
2018-12-20T11:17:25.144Z,994.86
2018-12-20T11:18:25.129Z,994.87
2018-12-20T11:19:25.119Z,994.85
2018-12-20T11:20:25.118Z,994.84
2018-12-20T11:21:25.131Z,994.82
2018-12-20T11:22:25.085Z,994.87
2018-12-20T11:23:25.125Z,994.89
2018-12-20T11:24:25.067Z,994.78
2018-12-20T11:25:25.062Z,994.81
2018-12-20T11:26:25.066Z,994.81
2018-12-20T11:27:25.043Z,994.77
2018-12-20T11:28:25.014Z,994.82
2018-12-20T11:29:25.011Z,994.82
2018-12-20T11:30:25.023Z,994.83
2018-12-20T11:31:25.008Z,994.87
2018-12-20T11:32:24.985Z,994.81
2018-12-20T11:33:24.962Z,994.84
2018-12-20T11:34:24.984Z,994.85
2018-12-20T11:35:24.940Z,994.86
2018-12-20T11:36:24.952Z,994.90
2018-12-20T11:37:24.915Z,994.86
2018-12-20T11:38:24.906Z,994.81
2018-12-20T11:39:24.894Z,994.78
2018-12-20T11:40:24.879Z,994.84
2018-12-20T11:41:24.930Z,994.80
2018-12-20T11:42:24.862Z,994.80
2018-12-20T11:43:24.846Z,994.75
2018-12-20T11:44:24.840Z,994.74
2018-12-20T11:45:24.828Z,994.69
2018-12-20T11:46:24.842Z,994.71
2018-12-20T11:47:24.825Z,994.71
2018-12-20T11:48:24.838Z,994.73
2018-12-20T11:49:24.782Z,994.75
2018-12-20T11:50:24.774Z,994.74
2018-12-20T11:51:24.764Z,994.76
2018-12-20T11:52:24.775Z,994.74
2018-12-20T11:53:24.739Z,994.76
2018-12-20T11:54:24.728Z,994.79
2018-12-20T11:55:24.723Z,994.76
2018-12-20T11:56:24.695Z,994.75
2018-12-20T11:57:24.721Z,994.72
2018-12-20T11:58:24.676Z,994.73
2018-12-20T11:59:24.708Z,994.76
2018-12-20T12:00:24.671Z,994.74
2018-12-20T12:01:24.638Z,994.70
2018-12-20T12:02:24.913Z,994.74
2018-12-20T12:03:24.630Z,994.74
2018-12-20T12:04:24.619Z,994.70
2018-12-20T12:05:24.641Z,994.69
2018-12-20T12:06:24.599Z,994.74
2018-12-20T12:07:24.595Z,994.73
2018-12-20T12:08:24.569Z,994.67
2018-12-20T12:09:24.560Z,994.66
2018-12-20T12:10:24.593Z,994.63
2018-12-20T12:11:24.528Z,994.68
2018-12-20T12:12:24.543Z,994.65
2018-12-20T12:13:24.511Z,994.63
2018-12-20T12:14:24.505Z,994.65
2018-12-20T12:15:26.535Z,994.66
2018-12-20T12:16:24.512Z,994.72
2018-12-20T12:17:24.487Z,994.72
2018-12-20T12:18:24.461Z,994.67
2018-12-20T12:19:24.443Z,994.64
2018-12-20T12:20:24.431Z,994.64
2018-12-20T12:21:24.444Z,994.67
2018-12-20T12:22:24.440Z,994.67
2018-12-20T12:23:24.398Z,994.65
2018-12-20T12:24:24.389Z,994.66
2018-12-20T12:25:24.381Z,994.67
2018-12-20T12:26:24.362Z,994.64
2018-12-20T12:27:24.371Z,994.57
2018-12-20T12:28:24.394Z,994.57
2018-12-20T12:29:24.348Z,994.60
2018-12-20T12:30:24.311Z,994.62
2018-12-20T12:31:24.319Z,994.63
2018-12-20T12:32:24.336Z,994.61
2018-12-20T12:33:24.280Z,994.68
2018-12-20T12:34:24.275Z,994.67
2018-12-20T12:35:24.285Z,994.71
2018-12-20T12:36:24.245Z,994.73
2018-12-20T12:37:24.250Z,994.70
2018-12-20T12:38:24.285Z,994.69
2018-12-20T12:39:24.220Z,994.69
2018-12-20T12:40:24.209Z,994.71
2018-12-20T12:41:24.193Z,994.68
2018-12-20T12:42:24.176Z,994.73
2018-12-20T12:43:24.254Z,994.72
2018-12-20T12:44:24.157Z,994.72
2018-12-20T12:45:24.151Z,994.77
2018-12-20T12:46:24.141Z,994.74
2018-12-20T12:47:24.139Z,994.72
2018-12-20T12:48:24.141Z,994.68
2018-12-20T12:49:24.278Z,994.65
2018-12-20T12:50:24.092Z,994.65
2018-12-20T12:51:24.129Z,994.65
2018-12-20T12:52:24.068Z,994.57
2018-12-20T12:53:24.091Z,994.60
2018-12-20T12:54:24.047Z,994.62
2018-12-20T12:55:24.038Z,994.57
2018-12-20T12:56:24.037Z,994.57
2018-12-20T12:57:24.008Z,994.58
2018-12-20T12:58:24.036Z,994.55
2018-12-20T12:59:23.986Z,994.57
2018-12-20T13:00:24.015Z,994.53
2018-12-20T13:01:23.970Z,994.61
2018-12-20T13:02:23.959Z,994.64
2018-12-20T13:03:23.964Z,994.59
2018-12-20T13:04:23.937Z,994.58
2018-12-20T13:05:23.926Z,994.54
2018-12-20T13:06:23.948Z,994.49
2018-12-20T13:07:23.909Z,994.58
2018-12-20T13:08:23.905Z,994.61
2018-12-20T13:09:23.877Z,994.54
2018-12-20T13:10:23.866Z,994.60
2018-12-20T13:11:23.882Z,994.53
2018-12-20T13:12:23.841Z,994.57
2018-12-20T13:13:23.862Z,994.51
2018-12-20T13:14:23.817Z,994.50
2018-12-20T13:15:23.832Z,994.49
2018-12-20T13:16:23.801Z,994.50
2018-12-20T13:17:23.800Z,994.57
2018-12-20T13:18:23.806Z,994.52
2018-12-20T13:19:23.771Z,994.53
2018-12-20T13:20:23.747Z,994.51
2018-12-20T13:21:23.742Z,994.52
2018-12-20T13:22:23.804Z,994.43
2018-12-20T13:23:25.663Z,994.50
2018-12-20T13:24:23.757Z,994.49
2018-12-20T13:25:23.701Z,994.46
2018-12-20T13:26:23.680Z,994.42
2018-12-20T13:27:23.726Z,994.44
2018-12-20T13:28:23.666Z,994.48
2018-12-20T13:29:23.676Z,994.43
2018-12-20T13:30:23.641Z,994.47
2018-12-20T13:31:23.629Z,994.50
2018-12-20T13:32:23.618Z,994.47
2018-12-20T13:33:23.642Z,994.47
2018-12-20T13:34:23.618Z,994.50
2018-12-20T13:35:23.591Z,994.51
2018-12-20T13:36:23.576Z,994.49
2018-12-20T13:37:23.578Z,994.47
2018-12-20T13:38:23.544Z,994.45
2018-12-20T13:39:23.570Z,994.45
2018-12-20T13:40:23.534Z,994.46
2018-12-20T13:41:23.526Z,994.44
2018-12-20T13:42:23.517Z,994.47
2018-12-20T13:43:23.495Z,994.48
2018-12-20T13:44:23.552Z,994.49
2018-12-20T13:45:23.481Z,994.49
2018-12-20T13:46:23.463Z,994.46
2018-12-20T13:47:23.454Z,994.49
2018-12-20T13:48:23.445Z,994.52
2018-12-20T13:49:23.504Z,994.55
2018-12-20T13:50:23.413Z,994.56
2018-12-20T13:51:23.527Z,994.56
2018-12-20T13:52:23.404Z,994.60
2018-12-20T13:53:23.386Z,994.61
2018-12-20T13:54:23.397Z,994.60
2018-12-20T13:55:23.371Z,994.63
2018-12-20T13:56:23.344Z,994.63
2018-12-20T13:57:23.399Z,994.63
2018-12-20T13:58:23.366Z,994.66
2018-12-20T13:59:23.343Z,994.65
2018-12-20T14:00:23.309Z,994.65
2018-12-20T14:01:23.285Z,994.64
2018-12-20T14:02:23.279Z,994.64
2018-12-20T14:03:23.310Z,994.70
2018-12-20T14:04:23.296Z,994.72
2018-12-20T14:05:23.239Z,994.72
2018-12-20T14:06:23.238Z,994.72
2018-12-20T14:07:23.250Z,994.74
2018-12-20T14:08:23.218Z,994.72
2018-12-20T14:09:23.333Z,994.75
2018-12-20T14:10:23.191Z,994.80
2018-12-20T14:11:23.213Z,994.83
2018-12-20T14:12:23.177Z,994.80
2018-12-20T14:13:23.183Z,994.82
2018-12-20T14:14:23.146Z,994.78
2018-12-20T14:15:23.174Z,994.81
2018-12-20T14:16:23.128Z,994.79
2018-12-20T14:17:23.117Z,994.82
2018-12-20T14:18:30.630Z,994.80
2018-12-20T14:19:24.090Z,994.83
2018-12-20T14:20:23.103Z,994.83
2018-12-20T14:21:23.068Z,994.80
2018-12-20T14:22:23.097Z,994.85
2018-12-20T14:23:23.052Z,994.85
2018-12-20T14:24:23.035Z,994.85
2018-12-20T14:25:23.060Z,994.82
2018-12-20T14:26:23.019Z,994.86
2018-12-20T14:27:23.006Z,994.81
2018-12-20T14:28:22.991Z,994.79
2018-12-20T14:29:22.978Z,994.85
2018-12-20T14:30:22.987Z,994.86
2018-12-20T14:31:22.990Z,994.91
2018-12-20T14:32:22.940Z,994.91
2018-12-20T14:33:22.940Z,994.88
2018-12-20T14:34:22.922Z,994.87
2018-12-20T14:35:22.940Z,994.86
2018-12-20T14:36:22.895Z,994.80
2018-12-20T14:37:22.890Z,994.83
2018-12-20T14:38:22.906Z,994.82
2018-12-20T14:39:22.865Z,994.80
2018-12-20T14:40:22.882Z,994.84
2018-12-20T14:41:22.839Z,994.85
2018-12-20T14:42:22.829Z,994.86
2018-12-20T14:43:22.824Z,994.86
2018-12-20T14:44:22.810Z,994.89
2018-12-20T14:45:22.818Z,994.90
2018-12-20T14:46:22.791Z,994.95
2018-12-20T14:47:22.840Z,994.94
2018-12-20T14:48:22.764Z,994.95
2018-12-20T14:49:22.752Z,994.95
2018-12-20T14:50:22.762Z,994.91
2018-12-20T14:51:22.731Z,994.90
2018-12-20T14:52:22.739Z,994.96
2018-12-20T14:53:22.700Z,994.92
2018-12-20T14:54:22.703Z,994.95
2018-12-20T14:55:22.713Z,994.94
2018-12-20T14:56:22.674Z,994.96
2018-12-20T14:57:22.690Z,994.93
2018-12-20T14:58:22.646Z,994.92
2018-12-20T14:59:22.639Z,994.97
2018-12-20T15:00:22.709Z,994.96
2018-12-20T15:01:22.622Z,994.94
2018-12-20T15:02:22.604Z,994.92
2018-12-20T15:03:22.590Z,994.90
2018-12-20T15:04:22.582Z,994.88
2018-12-20T15:05:22.597Z,994.88
2018-12-20T15:06:22.551Z,994.84
2018-12-20T15:07:22.597Z,994.88
2018-12-20T15:08:22.541Z,994.87
2018-12-20T15:09:22.530Z,994.87
2018-12-20T15:10:22.540Z,994.89
2018-12-20T15:11:22.507Z,994.86
2018-12-20T15:12:22.488Z,994.83
2018-12-20T15:13:22.485Z,994.79
2018-12-20T15:14:22.475Z,994.84
2018-12-20T15:15:22.512Z,994.79
2018-12-20T15:16:22.470Z,994.84
2018-12-20T15:17:22.435Z,994.83
2018-12-20T15:18:22.428Z,994.84
2018-12-20T15:19:22.413Z,994.87
2018-12-20T15:20:22.405Z,994.91
2018-12-20T15:21:22.428Z,994.91
2018-12-20T15:22:22.377Z,994.90
2018-12-20T15:23:22.368Z,994.90
2018-12-20T15:24:22.357Z,994.87
2018-12-20T15:25:22.370Z,994.92
2018-12-20T15:26:22.365Z,994.90
2018-12-20T15:27:22.323Z,994.96
2018-12-20T15:28:22.315Z,994.98
2018-12-20T15:29:22.309Z,994.97
2018-12-20T15:30:22.283Z,994.98
2018-12-20T15:31:22.307Z,995.02
2018-12-20T15:32:22.267Z,995.09
2018-12-20T15:33:22.304Z,995.07
2018-12-20T15:34:22.251Z,995.07
2018-12-20T15:35:22.235Z,995.12
2018-12-20T15:36:22.252Z,995.17
2018-12-20T15:37:22.210Z,995.18
2018-12-20T15:38:22.224Z,995.17
2018-12-20T15:39:22.193Z,995.21
2018-12-20T15:40:22.175Z,995.21
2018-12-20T15:41:22.196Z,995.20
2018-12-20T15:42:22.168Z,995.20
2018-12-20T15:43:22.150Z,995.19
2018-12-20T15:44:22.146Z,995.23
2018-12-20T15:45:22.129Z,995.23
2018-12-20T15:46:22.373Z,995.25
2018-12-20T15:47:22.130Z,995.26
2018-12-20T15:48:22.098Z,995.29
2018-12-20T15:49:22.069Z,995.29
2018-12-20T15:50:22.068Z,995.28
2018-12-20T15:51:22.136Z,995.30
2018-12-20T15:52:22.041Z,995.22
2018-12-20T15:53:22.032Z,995.28
2018-12-20T15:54:22.019Z,995.32
2018-12-20T15:55:21.999Z,995.28
2018-12-20T15:56:22.031Z,995.33
2018-12-20T15:57:21.983Z,995.37
2018-12-20T15:58:22.014Z,995.30
2018-12-20T15:59:21.960Z,995.30
2018-12-20T16:00:21.959Z,995.29
2018-12-20T16:01:21.968Z,995.34
2018-12-20T16:02:21.933Z,995.36
2018-12-20T16:03:21.927Z,995.33
2018-12-20T16:04:21.901Z,995.31
2018-12-20T16:05:21.935Z,995.34
2018-12-20T16:06:21.906Z,995.29
2018-12-20T16:07:21.893Z,995.29
2018-12-20T16:08:21.863Z,995.24
2018-12-20T16:09:21.843Z,995.25
2018-12-20T16:10:21.841Z,995.28
2018-12-20T16:11:21.874Z,995.35
2018-12-20T16:12:21.840Z,995.30
2018-12-20T16:13:21.813Z,995.35
2018-12-20T16:14:21.797Z,995.39
2018-12-20T16:15:21.789Z,995.35
2018-12-20T16:16:21.776Z,995.33
2018-12-20T16:17:21.788Z,995.39
2018-12-20T16:18:21.769Z,995.39
2018-12-20T16:19:21.744Z,995.43
2018-12-20T16:20:21.725Z,995.46
2018-12-20T16:21:21.714Z,995.46
2018-12-20T16:22:21.729Z,995.47
2018-12-20T16:23:21.703Z,995.51
2018-12-20T16:24:21.683Z,995.54
2018-12-20T16:25:21.672Z,995.54
2018-12-20T16:26:21.660Z,995.56
2018-12-20T16:27:21.671Z,995.59
2018-12-20T16:28:21.634Z,995.56
2018-12-20T16:29:21.625Z,995.56
2018-12-20T16:30:21.617Z,995.54
2018-12-20T16:31:21.639Z,995.59
2018-12-20T16:32:21.617Z,995.58
2018-12-20T16:33:21.588Z,995.60
2018-12-20T16:34:21.568Z,995.66
2018-12-20T16:35:21.561Z,995.63
2018-12-20T16:36:21.543Z,995.65
2018-12-20T16:37:21.557Z,995.64
2018-12-20T16:38:21.522Z,995.61
2018-12-20T16:39:21.545Z,995.63
2018-12-20T16:40:21.503Z,995.69
2018-12-20T16:41:21.488Z,995.71
2018-12-20T16:42:21.509Z,995.71
2018-12-20T16:43:21.466Z,995.70
2018-12-20T16:44:21.458Z,995.75
2018-12-20T16:45:21.445Z,995.81
2018-12-20T16:46:21.433Z,995.81
2018-12-20T16:47:21.536Z,995.77
2018-12-20T16:48:21.409Z,995.81
2018-12-20T16:49:21.399Z,995.74
2018-12-20T16:50:21.384Z,995.74
2018-12-20T16:51:21.375Z,995.74
2018-12-20T16:52:21.393Z,995.75
2018-12-20T16:53:21.345Z,995.76
2018-12-20T16:54:21.346Z,995.75
2018-12-20T16:55:21.332Z,995.82
2018-12-20T16:56:21.358Z,995.78
2018-12-20T16:57:21.344Z,995.81
2018-12-20T16:58:21.291Z,995.77
2018-12-20T16:59:21.283Z,995.76
2018-12-20T17:00:21.273Z,995.74
2018-12-20T17:01:21.263Z,995.71
2018-12-20T17:02:21.280Z,995.75
2018-12-20T17:03:21.264Z,995.75
2018-12-20T17:04:21.217Z,995.74
2018-12-20T17:05:21.216Z,995.77
2018-12-20T17:06:21.210Z,995.77
2018-12-20T17:07:21.196Z,995.77
2018-12-20T17:08:21.211Z,995.79
2018-12-20T17:09:21.165Z,995.74
2018-12-20T17:10:21.152Z,995.76
2018-12-20T17:11:21.148Z,995.74
2018-12-20T17:12:21.133Z,995.75
2018-12-20T17:13:21.173Z,995.76
2018-12-20T17:14:21.107Z,995.78
2018-12-20T17:15:21.102Z,995.78
2018-12-20T17:16:21.112Z,995.77
2018-12-20T17:17:21.088Z,995.79
2018-12-20T17:18:21.091Z,995.78
2018-12-20T17:19:22.237Z,995.81
2018-12-20T17:20:21.053Z,995.80
2018-12-20T17:21:21.040Z,995.82
2018-12-20T17:22:21.013Z,995.85
2018-12-20T17:23:21.065Z,995.80
2018-12-20T17:24:21.001Z,995.89
2018-12-20T17:25:20.988Z,995.84
2018-12-20T17:26:20.980Z,995.84
2018-12-20T17:27:20.969Z,995.83
2018-12-20T17:28:20.976Z,995.87
2018-12-20T17:29:20.945Z,995.85
2018-12-20T17:30:20.945Z,995.86
2018-12-20T17:31:20.925Z,995.86
2018-12-20T17:32:20.914Z,995.88
2018-12-20T17:33:20.959Z,995.85
2018-12-20T17:34:20.892Z,995.83
2018-12-20T17:35:20.885Z,995.82
2018-12-20T17:36:20.864Z,995.79
2018-12-20T17:37:20.856Z,995.82
2018-12-20T17:38:20.866Z,995.81
2018-12-20T17:39:20.842Z,995.83
2018-12-20T17:40:20.830Z,995.83
2018-12-20T17:41:20.813Z,995.84
2018-12-20T17:42:20.797Z,995.84
2018-12-20T17:43:20.817Z,995.80
2018-12-20T17:44:20.777Z,995.83
2018-12-20T17:45:20.818Z,995.83
2018-12-20T17:46:20.758Z,995.82
2018-12-20T17:47:20.748Z,995.84
2018-12-20T17:48:29.052Z,995.86
2018-12-20T17:49:21.721Z,995.87
2018-12-20T17:50:20.710Z,995.85
2018-12-20T17:51:20.708Z,995.85
2018-12-20T17:52:20.686Z,995.85
2018-12-20T17:53:20.722Z,995.83
2018-12-20T17:54:20.651Z,995.83
2018-12-20T17:55:20.657Z,995.79
2018-12-20T17:56:20.637Z,995.77
2018-12-20T17:57:20.649Z,995.73
2018-12-20T17:58:20.638Z,995.75
2018-12-20T17:59:20.604Z,995.65
2018-12-20T18:00:20.601Z,995.65
2018-12-20T18:01:20.586Z,995.63
2018-12-20T18:02:20.623Z,995.60
2018-12-20T18:03:20.588Z,995.62
2018-12-20T18:04:20.548Z,995.62
2018-12-20T18:05:20.804Z,995.61
2018-12-20T18:06:20.530Z,995.66
2018-12-20T18:07:20.524Z,995.65
2018-12-20T18:08:20.533Z,995.70
2018-12-20T18:09:20.520Z,995.72
2018-12-20T18:10:20.488Z,995.67
2018-12-20T18:11:20.478Z,995.67
2018-12-20T18:12:20.523Z,995.73
2018-12-20T18:13:20.451Z,995.74
2018-12-20T18:14:20.474Z,995.72
2018-12-20T18:15:20.432Z,995.69
2018-12-20T18:16:20.415Z,995.76
2018-12-20T18:17:20.409Z,995.75
2018-12-20T18:18:20.388Z,995.75
2018-12-20T18:19:20.401Z,995.74
2018-12-20T18:20:20.375Z,995.75
2018-12-20T18:21:20.409Z,995.81
2018-12-20T18:22:20.355Z,995.81
2018-12-20T18:23:20.338Z,995.79
2018-12-20T18:24:20.353Z,995.80
2018-12-20T18:25:20.320Z,995.89
2018-12-20T18:26:20.306Z,995.86
2018-12-20T18:27:20.280Z,995.84
2018-12-20T18:28:20.293Z,995.82
2018-12-20T18:29:20.297Z,995.82
2018-12-20T18:30:20.306Z,995.86
2018-12-20T18:31:20.253Z,995.81
2018-12-20T18:32:20.231Z,995.80
2018-12-20T18:33:20.231Z,995.76
2018-12-20T18:34:20.234Z,995.74
2018-12-20T18:35:20.201Z,995.68
2018-12-20T18:36:20.195Z,995.66
2018-12-20T18:37:20.191Z,995.74
2018-12-20T18:38:20.179Z,995.77
2018-12-20T18:39:20.169Z,995.72
2018-12-20T18:40:20.147Z,995.81
2018-12-20T18:41:20.135Z,995.81
2018-12-20T18:42:20.176Z,995.83
2018-12-20T18:43:20.111Z,995.80
2018-12-20T18:44:20.240Z,995.82
2018-12-20T18:45:20.083Z,995.85
2018-12-20T18:46:20.109Z,995.79
2018-12-20T18:47:20.080Z,995.82
2018-12-20T18:48:20.049Z,995.78
2018-12-20T18:49:20.066Z,995.80
2018-12-20T18:50:20.038Z,995.77
2018-12-20T18:51:20.012Z,995.80
2018-12-20T18:52:20.006Z,995.79
2018-12-20T18:53:20.028Z,995.82
2018-12-20T18:54:20.006Z,995.83
2018-12-20T18:55:19.974Z,995.78
2018-12-20T18:56:19.961Z,995.78
2018-12-20T18:57:19.979Z,995.77
2018-12-20T18:58:19.941Z,995.76
2018-12-20T18:59:19.952Z,995.80
2018-12-20T19:00:19.922Z,995.77
2018-12-20T19:01:19.914Z,995.83
2018-12-20T19:02:19.886Z,995.80
2018-12-20T19:03:19.900Z,995.79
2018-12-20T19:04:19.863Z,995.83
2018-12-20T19:05:19.876Z,995.84
2018-12-20T19:06:19.846Z,995.86
2018-12-20T19:07:19.870Z,995.89
2018-12-20T19:08:19.830Z,995.87
2018-12-20T19:09:19.817Z,995.89
2018-12-20T19:10:19.828Z,995.85
2018-12-20T19:11:19.796Z,995.86
2018-12-20T19:12:19.780Z,995.83
2018-12-20T19:13:19.805Z,995.82
2018-12-20T19:14:19.754Z,995.85
2018-12-20T19:15:19.772Z,995.85
2018-12-20T19:16:19.732Z,995.86
2018-12-20T19:17:19.727Z,995.87
2018-12-20T19:18:19.711Z,995.81
2018-12-20T19:19:19.800Z,995.84
2018-12-20T19:20:19.738Z,995.85
2018-12-20T19:21:19.676Z,995.83
2018-12-20T19:22:19.665Z,995.83
2018-12-20T19:23:19.653Z,995.85
2018-12-20T19:24:19.649Z,995.83
2018-12-20T19:25:19.656Z,995.89
2018-12-20T19:26:19.617Z,995.92
2018-12-20T19:27:19.611Z,995.90
2018-12-20T19:28:19.635Z,995.91
2018-12-20T19:29:19.582Z,995.97
2018-12-20T19:30:19.612Z,995.96
2018-12-20T19:31:19.571Z,995.94
2018-12-20T19:32:19.554Z,995.97
2018-12-20T19:33:19.544Z,995.97
2018-12-20T19:34:19.528Z,995.99
2018-12-20T19:35:19.539Z,995.96
2018-12-20T19:36:19.503Z,995.97
2018-12-20T19:37:19.539Z,995.97
2018-12-20T19:38:20.558Z,995.93
2018-12-20T19:39:19.480Z,995.87
2018-12-20T19:40:19.492Z,995.88
2018-12-20T19:41:19.449Z,995.84
2018-12-20T19:42:19.436Z,995.82
2018-12-20T19:43:19.430Z,995.80
2018-12-20T19:44:19.418Z,995.78
2018-12-20T19:45:19.440Z,995.80
2018-12-20T19:46:19.390Z,995.84
2018-12-20T19:47:19.411Z,995.88
2018-12-20T19:48:19.380Z,995.92
2018-12-20T19:49:19.358Z,995.90
2018-12-20T19:50:19.381Z,995.89
2018-12-20T19:51:19.335Z,995.93
2018-12-20T19:52:19.335Z,995.93
2018-12-20T19:53:19.366Z,995.89
2018-12-20T19:54:19.301Z,995.92
2018-12-20T19:55:19.318Z,995.95
2018-12-20T19:56:19.285Z,995.89
2018-12-20T19:57:19.271Z,995.89
2018-12-20T19:58:19.263Z,995.91
2018-12-20T19:59:19.253Z,995.86
2018-12-20T20:00:19.266Z,995.80
2018-12-20T20:01:19.222Z,995.84
2018-12-20T20:02:19.215Z,995.84
2018-12-20T20:03:19.246Z,995.86
2018-12-20T20:04:19.195Z,995.91
2018-12-20T20:05:19.210Z,995.89
2018-12-20T20:06:19.224Z,995.91
2018-12-20T20:07:19.158Z,995.92
2018-12-20T20:08:19.157Z,995.91
2018-12-20T20:09:19.132Z,995.90
2018-12-20T20:10:19.132Z,995.94
2018-12-20T20:11:19.134Z,995.92
2018-12-20T20:12:19.109Z,995.91
2018-12-20T20:13:19.601Z,995.89
2018-12-20T20:14:19.077Z,995.94
2018-12-20T20:15:19.098Z,995.93
2018-12-20T20:16:19.080Z,995.93
2018-12-20T20:17:19.047Z,995.92
2018-12-20T20:18:19.037Z,995.92
2018-12-20T20:19:19.023Z,995.91
2018-12-20T20:20:19.017Z,995.86
2018-12-20T20:21:19.029Z,995.90
2018-12-20T20:22:18.991Z,995.89
2018-12-20T20:23:18.982Z,995.85
2018-12-20T20:24:19.020Z,995.88
2018-12-20T20:25:18.956Z,995.84
2018-12-20T20:26:18.975Z,995.85
2018-12-20T20:27:18.934Z,995.82
2018-12-20T20:28:18.921Z,995.68
2018-12-20T20:29:18.912Z,995.72
2018-12-20T20:30:18.903Z,995.70
2018-12-20T20:31:18.915Z,995.67
2018-12-20T20:32:18.918Z,995.70
2018-12-20T20:33:18.869Z,995.70
2018-12-20T20:34:18.860Z,995.68
2018-12-20T20:35:18.850Z,995.62
2018-12-20T20:36:18.859Z,995.69
2018-12-20T20:37:18.823Z,995.62
2018-12-20T20:38:18.810Z,995.66
2018-12-20T20:39:18.832Z,995.68
2018-12-20T20:40:18.792Z,995.65
2018-12-20T20:41:18.809Z,995.67
2018-12-20T20:42:18.768Z,995.68
2018-12-20T20:43:18.766Z,995.71
2018-12-20T20:44:18.750Z,995.69
2018-12-20T20:45:18.736Z,995.66
2018-12-20T20:46:18.750Z,995.63
2018-12-20T20:47:18.716Z,995.66
2018-12-20T20:48:18.697Z,995.61
2018-12-20T20:49:18.718Z,995.60
2018-12-20T20:50:22.677Z,995.57
2018-12-20T20:51:18.688Z,995.54
2018-12-20T20:52:18.657Z,995.53
2018-12-20T20:53:18.643Z,995.51
2018-12-20T20:54:18.625Z,995.49
2018-12-20T20:55:18.626Z,995.45
2018-12-20T20:56:18.629Z,995.52
2018-12-20T20:57:18.611Z,995.48
2018-12-20T20:58:18.598Z,995.53
2018-12-20T20:59:18.579Z,995.56
2018-12-20T21:00:18.565Z,995.61
2018-12-20T21:01:18.618Z,995.61
2018-12-20T21:02:18.545Z,995.64
2018-12-20T21:03:18.529Z,995.61
2018-12-20T21:04:18.524Z,995.64
2018-12-20T21:05:18.509Z,995.69
2018-12-20T21:06:18.521Z,995.75
2018-12-20T21:07:18.495Z,995.75
2018-12-20T21:08:18.466Z,995.81
2018-12-20T21:09:18.469Z,995.81
2018-12-20T21:10:18.514Z,995.78
2018-12-20T21:11:18.463Z,995.80
2018-12-20T21:12:22.848Z,995.82
2018-12-20T21:13:18.417Z,995.81
2018-12-20T21:14:18.410Z,995.82